Time;durP1;ratioP1;P1;durP2;ratioP2;P2;SDS_P1;SDS_P2;PMS_P1;PMS_P2;Temp;Humidity;BMP_temperature;BMP_pressure;BME280_temperature;BME280_humidity;BME280_pressure;Samples;Min_cycle;Max_cycle;Signal;HPM_P1;HPM_P2
2021/10/29 00:19:46;;;;;;;9.38;3.78;;;;;;;13.43;74.69;98419.47;5116059;28;20093;-48
2021/10/29 00:22:12;;;;;;;10.40;3.50;;;;;;;13.41;73.99;98421.31;5108788;27;20048;-50
2021/10/29 00:24:39;;;;;;;8.98;3.50;;;;;;;13.44;75.18;98423.81;5105528;27;21005;-49
2021/10/29 00:27:06;;;;;;;7.93;3.55;;;;;;;13.43;74.55;98416.88;5088845;28;20047;-47
2021/10/29 00:29:33;;;;;;;12.30;3.30;;;;;;;13.42;74.48;98416.06;5107891;28;20043;-48
2021/10/29 00:32:00;;;;;;;8.00;3.40;;;;;;;13.44;74.08;98410.78;5087720;28;20081;-49
2021/10/29 00:34:26;;;;;;;11.77;4.18;;;;;;;13.45;75.19;98409.88;5105920;28;20554;-50
2021/10/29 00:36:53;;;;;;;10.38;3.78;;;;;;;13.44;75.13;98413.41;5108852;28;20794;-48
2021/10/29 00:39:20;;;;;;;10.63;5.00;;;;;;;13.44;75.11;98403.00;5104875;27;20433;-48
2021/10/29 00:41:47;;;;;;;8.88;3.30;;;;;;;13.46;74.60;98408.97;5107076;28;20051;-49
2021/10/29 00:44:22;;;;;;;10.25;3.28;;;;;;;13.47;74.43;98402.84;5087244;28;20044;-49
2021/10/29 00:46:50;;;;;;;8.85;3.67;;;;;;;13.47;74.98;98393.28;5102697;28;20043;-48
2021/10/29 00:49:17;;;;;;;10.85;3.58;;;;;;;13.52;73.93;98400.09;5105096;28;20051;-49
2021/10/29 00:51:45;;;;;;;8.13;3.58;;;;;;;13.52;74.79;98400.09;5105618;28;20168;-49
2021/10/29 00:54:15;;;;;;;8.52;2.97;;;;;;;13.53;74.82;98387.03;5086813;28;20036;-48
2021/10/29 00:56:43;;;;;;;8.75;3.80;;;;;;;13.57;74.04;98387.72;5099853;28;20101;-48
2021/10/29 00:59:10;;;;;;;10.15;4.03;;;;;;;13.53;73.88;98379.22;5107239;28;20043;-48
2021/10/29 01:01:36;;;;;;;9.80;3.88;;;;;;;13.54;74.33;98378.31;5105747;28;20108;-47
2021/10/29 01:04:05;;;;;;;10.88;3.67;;;;;;;13.56;74.72;98371.31;5107483;28;20047;-48
2021/10/29 01:06:32;;;;;;;9.23;3.70;;;;;;;13.55;73.91;98364.41;5089108;28;20051;-48
2021/10/29 01:08:59;;;;;;;9.30;3.78;;;;;;;13.57;74.52;98357.38;5107647;27;20175;-53
2021/10/29 01:11:27;;;;;;;10.85;3.35;;;;;;;13.58;74.11;98364.25;5107175;28;20100;-52
2021/10/29 01:13:54;;;;;;;12.52;4.20;;;;;;;13.58;74.28;98364.25;5108071;28;20571;-48
2021/10/29 01:16:21;;;;;;;10.50;4.07;;;;;;;13.60;74.56;98359.84;5106509;28;20047;-49
2021/10/29 01:18:48;;;;;;;10.52;3.90;;;;;;;13.64;73.81;98362.34;5105352;28;20060;-52
2021/10/29 01:21:15;;;;;;;8.77;5.10;;;;;;;13.64;74.12;98352.75;5106158;27;20422;-50
2021/10/29 01:23:42;;;;;;;10.77;4.25;;;;;;;13.67;73.86;98354.38;5088364;28;20463;-51
2021/10/29 01:26:11;;;;;;;9.98;3.67;;;;;;;13.65;73.73;98343.19;5105416;27;20040;-47
2021/10/29 01:28:38;;;;;;;10.10;3.80;;;;;;;13.68;73.71;98343.91;5106523;28;20118;-51
2021/10/29 01:31:05;;;;;;;10.85;5.70;;;;;;;13.69;74.76;98342.16;5106534;28;20788;-52
2021/10/29 01:33:33;;;;;;;12.50;3.90;;;;;;;13.69;73.27;98344.75;5105715;28;20051;-49
2021/10/29 01:36:00;;;;;;;8.55;4.25;;;;;;;13.71;73.50;98332.53;5091002;28;20055;-50
2021/10/29 01:38:33;;;;;;;7.88;3.15;;;;;;;13.67;73.87;98333.56;5071554;28;20108;-48
2021/10/29 01:41:01;;;;;;;7.43;4.70;;;;;;;13.70;74.37;98328.22;5084840;28;20408;-51
2021/10/29 01:43:28;;;;;;;11.35;3.25;;;;;;;13.67;72.97;98316.22;5105259;28;20105;-50
2021/10/29 01:45:55;;;;;;;8.80;3.30;;;;;;;13.71;73.97;98322.13;5105556;28;20124;-50
2021/10/29 01:48:23;;;;;;;10.00;3.58;;;;;;;13.69;74.49;98308.34;5107197;28;20047;-48
2021/10/29 01:50:54;;;;;;;8.18;3.78;;;;;;;13.69;74.43;98308.34;5105218;28;20403;-51
2021/10/29 01:53:21;;;;;;;10.80;3.60;;;;;;;13.71;74.52;98311.72;5083664;28;20134;-48
2021/10/29 01:55:49;;;;;;;9.52;3.90;;;;;;;13.71;74.07;98311.72;5103230;28;20545;-48
2021/10/29 01:58:16;;;;;;;10.43;3.70;;;;;;;13.68;74.18;98304.06;5106275;28;20051;-48
2021/10/29 02:00:43;;;;;;;10.98;3.58;;;;;;;13.68;74.03;98306.66;5104260;28;20047;-49
2021/10/29 02:03:09;;;;;;;9.13;3.00;;;;;;;13.69;73.60;98305.72;5101885;28;20052;-47
2021/10/29 02:05:37;;;;;;;10.25;3.90;;;;;;;13.64;75.66;98305.94;5108163;28;20044;-49
2021/10/29 02:08:04;;;;;;;9.57;4.03;;;;;;;13.59;75.38;98295.75;5104439;28;20048;-49
2021/10/29 02:10:31;;;;;;;14.18;4.38;;;;;;;13.54;75.51;98307.25;5107208;28;20589;-50
2021/10/29 02:12:57;;;;;;;7.90;3.70;;;;;;;13.59;75.16;98298.34;5105058;28;20054;-48
2021/10/29 02:15:24;;;;;;;12.98;3.80;;;;;;;13.55;75.08;98286.38;5107087;28;20048;-48
2021/10/29 02:17:51;;;;;;;8.98;4.25;;;;;;;13.53;76.28;98296.00;5105823;28;20043;-48
2021/10/29 02:20:17;;;;;;;12.20;4.30;;;;;;;13.49;76.38;98295.28;5105448;28;20441;-48
2021/10/29 02:22:44;;;;;;;8.68;3.40;;;;;;;13.49;75.49;98291.84;5103709;28;20171;-49
2021/10/29 02:25:11;;;;;;;9.63;3.75;;;;;;;13.46;76.18;98291.94;5105783;28;20495;-49
2021/10/29 02:27:38;;;;;;;8.00;4.18;;;;;;;13.41;76.36;98293.91;5104688;28;20088;-48
2021/10/29 02:30:05;;;;;;;10.60;3.90;;;;;;;13.43;76.41;98286.84;5081213;28;20057;-48
2021/10/29 02:32:32;;;;;;;9.32;3.05;;;;;;;13.40;76.55;98281.81;5105406;28;20044;-48
2021/10/29 02:34:58;;;;;;;10.52;3.80;;;;;;;13.37;76.57;98286.22;5102559;28;20100;-48
2021/10/29 02:37:25;;;;;;;14.35;4.30;;;;;;;13.37;76.67;98288.81;5104165;28;20047;-48
2021/10/29 02:39:52;;;;;;;10.95;4.75;;;;;;;13.33;76.83;98271.66;5101799;28;20051;-48
2021/10/29 02:42:21;;;;;;;7.07;3.60;;;;;;;13.34;76.35;98262.94;5104765;28;20044;-48
2021/10/29 02:44:48;;;;;;;9.75;3.95;;;;;;;13.29;76.33;98259.72;5103932;28;20044;-48
2021/10/29 02:47:15;;;;;;;10.02;3.55;;;;;;;13.27;77.87;98253.72;5106025;28;20040;-48
2021/10/29 02:49:41;;;;;;;11.48;3.55;;;;;;;13.25;76.75;98252.94;5101027;28;20048;-47
2021/10/29 02:52:08;;;;;;;9.18;3.22;;;;;;;13.22;77.50;98248.72;5102265;28;20059;-49
2021/10/29 02:54:34;;;;;;;7.70;4.28;;;;;;;13.22;77.49;98233.13;5103558;28;20092;-48
2021/10/29 02:57:01;;;;;;;10.57;3.50;;;;;;;13.19;76.82;98232.41;5103210;28;20051;-48
2021/10/29 02:59:28;;;;;;;6.82;3.60;;;;;;;13.20;77.64;98228.88;5103381;28;20101;-48
2021/10/29 03:01:54;;;;;;;9.63;3.92;;;;;;;13.18;77.85;98223.78;5102124;28;20040;-50
2021/10/29 03:04:21;;;;;;;8.30;2.88;;;;;;;13.20;77.73;98213.28;5100778;28;20048;-49
2021/10/29 03:06:48;;;;;;;7.85;2.95;;;;;;;13.18;77.35;98209.94;5102537;28;20048;-48
2021/10/29 03:09:14;;;;;;;6.47;3.25;;;;;;;13.17;77.12;98208.25;5102419;28;20044;-48
2021/10/29 03:11:41;;;;;;;11.23;4.07;;;;;;;13.17;76.99;98198.66;5103610;28;20117;-49
2021/10/29 03:14:08;;;;;;;11.15;3.30;;;;;;;13.14;76.45;98192.78;5083973;28;20116;-49
2021/10/29 03:16:34;;;;;;;11.55;3.13;;;;;;;13.14;77.81;98197.97;5105365;28;20104;-50
2021/10/29 03:19:01;;;;;;;9.75;4.13;;;;;;;13.13;76.68;98194.53;5097412;28;20048;-49
2021/10/29 03:21:28;;;;;;;11.05;3.53;;;;;;;13.13;77.55;98180.69;5103968;28;20044;-48
2021/10/29 03:23:55;;;;;;;8.85;3.42;;;;;;;13.10;78.07;98177.31;5100749;28;20089;-50
2021/10/29 03:26:21;;;;;;;6.90;2.97;;;;;;;13.09;78.08;98180.81;5096514;28;20051;-48
2021/10/29 03:28:48;;;;;;;8.93;3.50;;;;;;;13.06;77.47;98170.56;5101950;28;20093;-50
2021/10/29 03:31:15;;;;;;;6.35;2.78;;;;;;;13.06;77.60;98170.56;5103082;28;20384;-49
2021/10/29 03:33:42;;;;;;;7.72;3.22;;;;;;;13.06;76.80;98175.75;5102426;28;20123;-52
2021/10/29 03:36:08;;;;;;;7.28;3.85;;;;;;;13.06;76.58;98170.56;5100356;28;20059;-48
2021/10/29 03:38:43;;;;;;;5.95;2.97;;;;;;;13.02;77.14;98161.22;5102671;28;20120;-51
2021/10/29 03:41:12;;;;;;;7.75;3.28;;;;;;;12.98;78.08;98146.66;5098105;28;20183;-51
2021/10/29 03:43:45;;;;;;;9.52;3.15;;;;;;;12.91;77.99;98147.81;5105647;28;20120;-49
2021/10/29 03:46:17;;;;;;;9.18;3.28;;;;;;;12.91;78.34;98150.44;5104274;28;20040;-49
2021/10/29 03:48:56;;;;;;;8.00;3.10;;;;;;;12.87;77.78;98144.50;5104867;28;20051;-48
2021/10/29 03:51:28;;;;;;;7.15;3.25;;;;;;;12.87;78.39;98138.47;5103893;28;20052;-50
2021/10/29 03:54:00;;;;;;;8.82;2.75;;;;;;;12.85;77.67;98135.94;5106194;28;20052;-48
2021/10/29 03:56:27;;;;;;;8.73;3.25;;;;;;;12.80;76.97;98128.34;5101041;27;20112;-48
2021/10/29 03:58:56;;;;;;;6.07;4.25;;;;;;;12.75;76.96;98130.31;5104489;28;20445;-49
2021/10/29 04:01:23;;;;;;;5.55;2.47;;;;;;;12.78;76.20;98121.53;5104864;28;20060;-49
2021/10/29 04:03:50;;;;;;;5.32;2.55;;;;;;;12.78;75.94;98130.19;5107690;28;20105;-48
2021/10/29 04:06:17;;;;;;;4.68;2.22;;;;;;;12.77;76.50;98119.84;5106263;28;20047;-47
2021/10/29 04:08:44;;;;;;;4.97;2.03;;;;;;;12.76;74.71;98121.59;5106837;28;20108;-47
2021/10/29 04:11:11;;;;;;;5.65;2.05;;;;;;;12.78;75.75;98117.19;5106070;28;20051;-51
2021/10/29 04:13:39;;;;;;;4.55;1.73;;;;;;;12.82;75.19;98113.53;5106101;28;20043;-49
2021/10/29 04:16:06;;;;;;;4.72;2.00;;;;;;;12.82;74.28;98110.09;5104518;27;20528;-52
2021/10/29 04:18:34;;;;;;;6.55;2.65;;;;;;;12.85;74.83;98095.22;5107660;28;20135;-49
2021/10/29 04:21:01;;;;;;;3.13;1.27;;;;;;;12.84;73.39;98098.72;5108483;27;20047;-49
2021/10/29 04:23:28;;;;;;;6.07;1.80;;;;;;;12.83;73.30;98088.38;5090808;28;20055;-50
2021/10/29 04:25:55;;;;;;;6.03;2.97;;;;;;;12.83;74.51;98081.44;5105948;28;20051;-49
2021/10/29 04:28:23;;;;;;;3.92;2.00;;;;;;;12.82;74.42;98084.97;5105208;27;20043;-48
2021/10/29 04:30:51;;;;;;;5.03;2.08;;;;;;;12.88;73.20;98093.41;5102944;28;20093;-48
2021/10/29 04:33:20;;;;;;;4.18;2.33;;;;;;;12.84;72.93;98083.13;5107898;28;20067;-48
2021/10/29 04:35:51;;;;;;;7.40;2.80;;;;;;;12.84;74.08;98077.94;5104411;28;20104;-48
2021/10/29 04:38:20;;;;;;;5.00;2.30;;;;;;;12.83;74.15;98070.22;5109191;27;20096;-49
2021/10/29 04:40:48;;;;;;;6.78;2.65;;;;;;;12.85;72.67;98069.25;5105333;28;20058;-48
2021/10/29 04:43:15;;;;;;;8.50;2.28;;;;;;;12.91;73.62;98067.28;5087905;28;20092;-49
2021/10/29 04:45:42;;;;;;;7.85;3.33;;;;;;;12.93;72.79;98073.25;5105676;27;20188;-47
2021/10/29 04:48:08;;;;;;;5.57;1.90;;;;;;;12.93;72.53;98081.88;5107475;28;20040;-48
2021/10/29 04:50:35;;;;;;;5.38;2.35;;;;;;;12.90;73.48;98076.81;5109795;27;20141;-47
2021/10/29 04:53:02;;;;;;;4.43;2.47;;;;;;;12.87;74.35;98078.72;5108904;28;20048;-49
2021/10/29 04:55:28;;;;;;;3.97;1.67;;;;;;;12.82;74.20;98078.91;5108576;27;20043;-48
2021/10/29 04:57:56;;;;;;;6.45;3.22;;;;;;;12.82;74.53;98069.38;5103633;28;20427;-48
2021/10/29 05:00:24;;;;;;;5.78;2.08;;;;;;;12.77;73.55;98066.13;5101097;27;20055;-49
2021/10/29 05:02:57;;;;;;;3.10;1.73;;;;;;;12.77;74.10;98060.09;5108496;28;20044;-50
2021/10/29 05:05:24;;;;;;;6.00;2.92;;;;;;;12.72;74.26;98060.28;5107427;28;20510;-48
2021/10/29 05:07:51;;;;;;;5.90;2.17;;;;;;;12.71;73.89;98051.66;5090042;28;20055;-48
2021/10/29 05:10:18;;;;;;;5.65;2.08;;;;;;;12.65;74.26;98056.28;5102438;28;20048;-47
2021/10/29 05:12:46;;;;;;;5.05;1.95;;;;;;;12.57;75.57;98065.22;5108212;28;20047;-47
2021/10/29 05:15:16;;;;;;;7.38;2.15;;;;;;;12.47;76.18;98049.19;5102714;28;20991;-48
2021/10/29 05:17:44;;;;;;;5.05;2.47;;;;;;;12.44;76.37;98045.91;5089299;28;20048;-49
2021/10/29 05:20:12;;;;;;;5.47;3.13;;;;;;;12.37;75.88;98073.88;5106455;28;20096;-49
2021/10/29 05:22:39;;;;;;;5.13;2.15;;;;;;;12.34;76.10;98048.88;5088355;28;20058;-48
2021/10/29 05:25:06;;;;;;;3.45;2.25;;;;;;;12.27;77.15;98044.88;5086340;28;20416;-50
2021/10/29 05:27:34;;;;;;;6.63;2.05;;;;;;;12.20;77.35;98043.44;5104494;28;20048;-48
2021/10/29 05:30:01;;;;;;;6.30;1.98;;;;;;;12.17;76.91;98043.56;5101233;27;20096;-48
2021/10/29 05:32:27;;;;;;;7.30;2.92;;;;;;;12.13;76.62;98034.22;5104746;28;20107;-48
2021/10/29 05:34:59;;;;;;;4.07;2.05;;;;;;;12.10;77.43;98040.38;5106647;28;20043;-48
2021/10/29 05:37:30;;;;;;;6.50;1.98;;;;;;;12.07;77.86;98035.31;5087439;28;20052;-48
2021/10/29 05:39:57;;;;;;;4.07;1.65;;;;;;;12.08;76.30;98032.66;5104491;27;20066;-49
2021/10/29 05:42:26;;;;;;;6.18;1.98;;;;;;;12.04;77.62;98031.06;5106680;28;20483;-52
2021/10/29 05:44:53;;;;;;;5.05;1.65;;;;;;;12.01;76.47;98036.38;5088218;28;20116;-50
2021/10/29 05:47:20;;;;;;;7.15;1.90;;;;;;;12.00;76.85;98018.28;5102091;28;20108;-51
2021/10/29 05:49:47;;;;;;;3.47;1.55;;;;;;;11.98;77.39;98010.56;5102296;28;20503;-52
2021/10/29 05:52:18;;;;;;;4.78;1.77;;;;;;;11.92;77.54;98011.66;5104195;27;20048;-47
2021/10/29 05:55:12;;;;;;;4.22;1.40;;;;;;;11.92;76.98;97995.28;5105055;28;20100;-50
2021/10/29 05:57:31;;;;;;;3.72;1.83;;;;;;;11.91;77.12;97997.00;5089104;28;20093;-48
2021/10/29 05:59:59;;;;;;;7.60;2.05;;;;;;;11.90;77.29;97994.47;5100426;27;20093;-48
2021/10/29 06:02:25;;;;;;;3.85;1.77;;;;;;;11.91;77.19;97984.03;5105160;28;22665;-49
2021/10/29 06:04:52;;;;;;;4.72;1.35;;;;;;;11.94;76.91;97990.84;5104975;28;20047;-47
2021/10/29 06:07:19;;;;;;;2.50;1.40;;;;;;;11.91;76.61;97983.19;5103375;28;20573;-47
2021/10/29 06:09:46;;;;;;;5.47;1.42;;;;;;;11.91;75.69;97972.81;5102559;27;20052;-49
2021/10/29 06:12:12;;;;;;;5.22;2.10;;;;;;;11.94;75.23;97963.16;5101319;28;20063;-47
2021/10/29 06:14:40;;;;;;;4.93;1.25;;;;;;;11.96;75.87;97976.06;5103633;27;20476;-50
2021/10/29 06:17:11;;;;;;;4.30;1.63;;;;;;;11.94;76.31;97972.69;5101886;28;20055;-48
2021/10/29 06:19:38;;;;;;;4.03;1.50;;;;;;;11.95;76.38;97975.22;5105285;28;20047;-48
2021/10/29 06:22:11;;;;;;;5.15;1.95;;;;;;;11.94;75.72;97970.09;5103568;28;20097;-48
2021/10/29 06:24:39;;;;;;;4.95;1.50;;;;;;;11.93;75.40;97955.44;5100745;27;20051;-51
2021/10/29 06:28:28;;;;;;;7.45;1.70;;;;;;;11.95;75.59;97961.38;5098035;28;20056;-48
2021/10/29 06:29:52;;;;;;;5.03;2.58;;;;;;;11.97;76.26;97962.19;5089895;28;20058;-49
2021/10/29 06:32:22;;;;;;;5.85;2.78;;;;;;;11.99;75.53;97949.16;5099508;28;20179;-52
2021/10/29 06:34:49;;;;;;;4.45;2.22;;;;;;;12.01;74.71;97945.56;5104243;28;20453;-50
2021/10/29 06:37:16;;;;;;;4.00;2.03;;;;;;;12.03;75.03;97954.13;5104304;28;20093;-48
2021/10/29 06:39:46;;;;;;;4.32;1.85;;;;;;;12.06;75.33;97941.06;5104329;27;20051;-47
2021/10/29 06:42:19;;;;;;;6.57;2.20;;;;;;;12.03;76.05;97945.50;5104033;28;20052;-48
2021/10/29 06:44:58;;;;;;;4.65;2.28;;;;;;;12.05;75.59;97946.28;5103003;28;20093;-47
2021/10/29 06:47:38;;;;;;;4.10;1.92;;;;;;;12.04;76.00;97950.66;5102464;28;20047;-48
2021/10/29 07:01:18;;;;;;;8.48;2.90;;;;;;;12.26;74.80;97947.13;5080257;28;20063;-48
2021/10/29 07:12:29;;;;;;;5.03;2.15;;;;;;;12.34;74.98;97926.88;5091858;28;20047;-48
2021/10/29 07:40:05;;;;;;;6.35;2.60;;;;;;;12.47;75.58;97923.75;5084006;28;20040;-48
2021/10/29 07:42:41;;;;;;;6.75;2.60;;;;;;;12.52;76.17;97913.13;5100533;28;20121;-48
2021/10/29 07:45:10;;;;;;;6.25;2.55;;;;;;;12.53;76.32;97918.28;5106043;28;20055;-48
2021/10/29 07:47:38;;;;;;;6.68;2.70;;;;;;;12.56;75.99;97905.16;5108892;28;20112;-48
2021/10/29 07:50:08;;;;;;;5.03;2.92;;;;;;;12.57;76.94;97893.84;5108975;28;20562;-48
2021/10/29 07:52:37;;;;;;;8.82;3.38;;;;;;;12.58;77.12;97900.75;5088540;28;20376;-48
2021/10/29 07:55:07;;;;;;;8.07;3.20;;;;;;;12.56;77.30;97897.38;5090413;28;20070;-48
2021/10/29 07:57:34;;;;;;;7.30;2.95;;;;;;;12.56;77.39;97902.56;5103226;28;20137;-47
2021/10/29 08:00:03;;;;;;;7.55;2.75;;;;;;;12.59;76.57;97892.03;5109176;28;20043;-51
2021/10/29 08:02:31;;;;;;;7.80;2.90;;;;;;;12.58;77.80;97899.91;5098946;27;20112;-49
2021/10/29 08:04:57;;;;;;;5.60;2.30;;;;;;;12.56;77.26;97892.16;5103015;28;20056;-51
2021/10/29 08:07:26;;;;;;;5.93;2.40;;;;;;;12.56;78.32;97896.50;5103404;27;20066;-51
2021/10/29 08:09:53;;;;;;;5.07;3.63;;;;;;;12.54;77.28;97894.00;5104597;28;20436;-51
2021/10/29 08:12:20;;;;;;;7.15;3.00;;;;;;;12.55;76.98;97894.84;5107567;28;20055;-49
2021/10/29 08:14:48;;;;;;;4.90;2.03;;;;;;;12.57;77.49;97896.44;5106420;28;20059;-48
2021/10/29 08:17:17;;;;;;;7.18;2.05;;;;;;;12.61;76.62;97884.19;5108660;28;20047;-49
2021/10/29 08:19:44;;;;;;;6.10;1.92;;;;;;;12.62;76.76;97890.19;5105227;27;20062;-50
2021/10/29 08:22:11;;;;;;;7.20;2.40;;;;;;;12.60;76.53;97882.50;5105466;27;20108;-48
2021/10/29 08:24:38;;;;;;;7.13;2.50;;;;;;;12.62;77.03;97890.19;5105646;28;20055;-49
2021/10/29 08:27:07;;;;;;;3.42;1.42;;;;;;;12.64;76.59;97898.78;5106414;28;20100;-49
2021/10/29 08:29:37;;;;;;;5.03;1.63;;;;;;;12.60;77.00;97893.72;5107460;28;20071;-50
2021/10/29 08:32:06;;;;;;;6.50;1.73;;;;;;;12.61;77.30;97891.97;5107742;28;20051;-50
2021/10/29 08:34:33;;;;;;;4.43;1.55;;;;;;;12.63;76.47;97902.28;5105566;27;20592;-49
2021/10/29 08:37:03;;;;;;;8.77;2.13;;;;;;;12.64;77.29;97906.56;5106396;28;20092;-49
2021/10/29 08:39:30;;;;;;;4.30;2.28;;;;;;;12.68;77.49;97895.97;5108969;27;20048;-48
2021/10/29 08:41:59;;;;;;;5.43;1.48;;;;;;;12.68;76.98;97889.91;5088300;28;20040;-51
2021/10/29 08:44:27;;;;;;;3.28;1.58;;;;;;;12.67;77.17;97891.66;5092522;28;20062;-48
2021/10/29 08:46:55;;;;;;;6.93;2.25;;;;;;;12.72;76.51;97891.47;5107424;28;20048;-48
2021/10/29 08:49:22;;;;;;;11.50;1.52;;;;;;;12.75;76.33;97886.13;5106387;27;20051;-48
2021/10/29 08:51:49;;;;;;;5.13;2.00;;;;;;;12.82;75.94;97887.53;5108443;27;20482;-50
2021/10/29 08:54:16;;;;;;;4.35;2.15;;;;;;;12.92;76.54;97876.69;5107312;28;20054;-48
2021/10/29 08:56:43;;;;;;;4.35;1.52;;;;;;;12.97;75.67;97890.34;5109374;27;20051;-49
2021/10/29 08:59:16;;;;;;;8.43;1.90;;;;;;;13.00;76.07;97879.78;5105769;28;20040;-48
2021/10/29 09:01:54;;;;;;;6.63;2.35;;;;;;;13.02;75.41;97880.56;5087946;28;20063;-48
2021/10/29 09:04:33;;;;;;;3.90;1.85;;;;;;;13.03;76.10;97878.81;5084737;27;20043;-48
2021/10/29 09:07:19;;;;;;;5.70;1.77;;;;;;;13.03;75.94;97864.03;5107619;27;20100;-48
2021/10/29 09:32:30;;;;;;;3.83;1.35;;;;;;;13.80;73.95;97875.94;5106221;27;20059;-48
2021/10/29 09:35:09;;;;;;;4.20;0.93;;;;;;;14.98;68.63;97868.91;5102878;27;20490;-50
2021/10/29 09:38:12;;;;;;;3.70;0.75;;;;;;;15.88;67.28;97876.81;5087318;28;20063;-48
2021/10/29 09:40:53;;;;;;;3.40;1.05;;;;;;;16.84;66.17;97874.53;5075869;28;20037;-50
2021/10/29 09:43:23;;;;;;;4.68;1.02;;;;;;;17.64;62.31;97879.94;5097839;27;20074;-49
2021/10/29 09:45:58;;;;;;;3.92;0.80;;;;;;;18.16;60.57;97886.06;5105617;28;20040;-50
2021/10/29 09:48:40;;;;;;;3.78;1.05;;;;;;;18.58;59.08;97887.56;5086244;28;20066;-49
2021/10/29 09:51:09;;;;;;;3.22;1.95;;;;;;;18.53;58.51;97890.50;5085059;28;20497;-45
2021/10/29 09:56:45;;;;;;;2.83;1.30;;;;;;;17.25;60.16;97887.72;5093650;28;20055;-48
2021/10/29 09:59:09;;;;;;;4.55;1.35;;;;;;;16.62;60.64;97886.34;5078975;27;20763;-47
2021/10/29 10:01:36;;;;;;;6.00;3.00;;;;;;;16.28;62.11;97873.59;5106440;28;20431;-46
2021/10/29 10:04:05;;;;;;;5.25;1.10;;;;;;;16.04;63.03;97881.97;5094988;27;20048;-47
2021/10/29 10:06:33;;;;;;;6.43;1.40;;;;;;;15.76;62.79;97867.09;5091544;28;20067;-46
2021/10/29 10:09:02;;;;;;;3.40;1.20;;;;;;;15.55;63.30;97859.63;5105528;27;20101;-49
2021/10/29 10:11:30;;;;;;;3.17;1.05;;;;;;;15.85;64.11;97860.50;5083300;28;20048;-48
2021/10/29 10:13:58;;;;;;;3.35;1.00;;;;;;;15.84;62.70;97862.25;5080579;28;20475;-48
2021/10/29 10:16:27;;;;;;;3.60;1.00;;;;;;;15.55;62.81;97862.22;5074230;28;20077;-50
2021/10/29 10:18:55;;;;;;;4.68;0.95;;;;;;;15.33;63.83;97855.63;5083187;28;20517;-50
2021/10/29 10:21:26;;;;;;;3.75;0.73;;;;;;;15.21;64.16;97861.56;5084294;28;20052;-50
2021/10/29 10:23:57;;;;;;;4.97;0.80;;;;;;;15.02;64.34;97857.38;5087876;28;20044;-50
2021/10/29 10:26:44;;;;;;;7.55;0.73;;;;;;;14.85;65.60;97846.16;5084080;28;20052;-48
2021/10/29 10:29:21;;;;;;;6.20;1.15;;;;;;;14.77;65.52;97858.75;5100138;27;20055;-48
2021/10/29 10:40:44;;;;;;;4.20;1.08;;;;;;;14.99;66.15;97827.13;5084274;28;19966;-47
2021/10/29 10:46:14;;;;;;;3.00;0.90;;;;;;;15.31;64.69;97826.22;5087971;28;20104;-50
2021/10/29 10:48:47;;;;;;;3.88;0.80;;;;;;;15.35;64.07;97832.94;5086607;28;20048;-51
2021/10/29 10:51:38;;;;;;;2.05;0.30;;;;;;;15.28;62.83;97826.38;5098573;27;20055;-51
2021/10/29 10:54:17;;;;;;;3.03;0.43;;;;;;;15.29;63.67;97833.25;5088383;28;20108;-48
2021/10/29 11:09:58;;;;;;;2.40;0.40;;;;;;;14.76;67.22;97883.94;5084164;28;20047;-49
2021/10/29 11:11:19;;;;;;;4.63;0.30;;;;;;;14.61;67.38;97870.00;5090226;28;20101;-48
2021/10/29 11:13:50;;;;;;;2.85;0.40;;;;;;;14.45;67.32;97882.19;5101474;28;20059;-47
2021/10/29 11:16:36;;;;;;;2.67;0.63;;;;;;;14.29;66.58;97885.59;5083356;28;20048;-48
2021/10/29 11:19:14;;;;;;;2.80;1.38;;;;;;;14.24;67.18;97900.59;5091231;28;20414;-48
2021/10/29 11:21:48;;;;;;;0.77;0.32;;;;;;;14.24;66.79;97883.22;5084960;28;20039;-49
2021/10/29 11:24:15;;;;;;;1.20;0.20;;;;;;;14.25;66.89;97894.47;5105830;28;20054;-47
2021/10/29 11:26:47;;;;;;;1.38;0.70;;;;;;;14.27;66.49;97890.03;5105579;28;20157;-47
2021/10/29 11:29:15;;;;;;;1.55;0.35;;;;;;;14.29;66.60;97890.81;5102986;28;20055;-47
2021/10/29 11:31:47;;;;;;;1.05;0.57;;;;;;;14.39;66.61;97902.41;5106229;28;20044;-47
2021/10/29 11:34:16;;;;;;;2.10;0.47;;;;;;;14.46;66.46;97912.50;5104369;28;20667;-51
2021/10/29 11:36:49;;;;;;;2.78;0.32;;;;;;;14.53;65.99;97919.06;5083394;28;20055;-47
2021/10/29 11:39:18;;;;;;;1.05;0.20;;;;;;;14.53;66.20;97921.66;5101103;28;20044;-47
2021/10/29 11:41:47;;;;;;;2.15;0.20;;;;;;;14.46;65.26;97934.16;5087175;28;20052;-48
2021/10/29 11:44:20;;;;;;;1.25;0.30;;;;;;;14.50;65.67;97932.25;5084240;28;20060;-46
2021/10/29 11:46:48;;;;;;;2.03;0.30;;;;;;;14.50;65.97;97940.06;5101835;28;20051;-46
2021/10/29 11:49:19;;;;;;;0.93;0.50;;;;;;;14.43;64.68;97943.91;5102663;28;20082;-48
2021/10/29 11:51:46;;;;;;;2.28;0.55;;;;;;;14.40;64.91;97943.13;5098534;28;20059;-48
2021/10/29 11:54:18;;;;;;;1.77;0.43;;;;;;;14.36;65.11;97951.19;5102203;28;20051;-48
2021/10/29 11:57:36;;;;;;;0.70;0.30;;;;;;;14.31;64.80;97951.44;5102172;28;20055;-48
2021/10/29 12:07:57;;;;;;;1.85;0.20;;;;;;;14.34;64.96;97964.31;5079287;28;20553;-46
2021/10/29 12:10:24;;;;;;;1.55;0.30;;;;;;;14.43;65.12;97976.00;5100061;28;20056;-48
2021/10/29 12:12:55;;;;;;;1.83;0.50;;;;;;;14.40;64.50;97966.56;5102200;28;20051;-47
2021/10/29 12:15:25;;;;;;;0.55;0.40;;;;;;;14.42;65.77;97968.28;5102241;28;20096;-47
2021/10/29 12:17:59;;;;;;;0.77;0.30;;;;;;;14.43;64.88;97975.16;5086382;28;20052;-47
2021/10/29 12:20:34;;;;;;;1.92;0.45;;;;;;;14.40;64.44;97963.97;5107244;28;20055;-50
2021/10/29 12:23:07;;;;;;;3.50;0.70;;;;;;;14.40;64.92;97978.78;5090903;28;20047;-48
2021/10/29 12:25:57;;;;;;;1.15;0.50;;;;;;;14.40;64.78;97982.19;5090703;28;20043;-49
2021/10/29 12:28:29;;;;;;;2.13;0.57;;;;;;;14.43;64.57;97990.78;5092975;28;20047;-48
2021/10/29 12:30:59;;;;;;;0.80;0.60;;;;;;;14.44;65.43;97988.09;5105642;28;20081;-48
2021/10/29 12:33:52;;;;;;;1.30;0.40;;;;;;;14.48;64.90;97997.44;5106435;28;20052;-52
2021/10/29 12:39:23;;;;;;;0.82;0.52;;;;;;;14.62;64.61;98001.06;5085163;28;20063;-50
2021/10/29 12:53:47;;;;;;;0.50;0.30;;;;;;;14.55;63.35;98016.19;5089805;28;20051;-49
2021/10/29 13:01:57;;;;;;;2.28;0.52;;;;;;;14.48;64.16;98031.31;5074915;28;20051;-47
2021/10/29 13:04:44;;;;;;;2.83;1.13;;;;;;;14.38;62.72;98030.94;5105108;28;20043;-48
2021/10/29 13:07:12;;;;;;;2.72;0.88;;;;;;;14.36;63.49;98043.16;5099563;27;20400;-48
2021/10/29 13:09:40;;;;;;;1.02;0.70;;;;;;;14.33;63.53;98042.50;5105823;27;20078;-47
2021/10/29 13:13:01;;;;;;;1.60;1.13;;;;;;;14.29;63.14;98051.38;5105726;28;20447;-49
2021/10/29 13:15:01;;;;;;;1.52;0.43;;;;;;;14.23;63.98;98047.31;5086985;28;20069;-49
2021/10/29 13:17:39;;;;;;;1.48;0.20;;;;;;;14.24;63.75;98043.78;5106499;28;20052;-48
2021/10/29 13:20:24;;;;;;;0.68;0.50;;;;;;;14.24;63.78;98046.41;5100996;28;20560;-49
2021/10/29 13:26:04;;;;;;;0.50;0.30;;;;;;;14.31;63.64;98049.53;5088307;28;20126;-49
2021/10/29 13:28:28;;;;;;;1.77;0.30;;;;;;;14.34;63.90;98060.66;5087985;28;20097;-49
2021/10/29 13:36:42;;;;;;;2.38;0.30;;;;;;;14.33;63.57;98073.75;5089399;28;20055;-49
2021/10/29 13:50:52;;;;;;;1.50;0.30;;;;;;;14.10;63.83;98084.38;5081568;28;20488;-48
2021/10/29 13:53:31;;;;;;;1.85;0.30;;;;;;;14.04;63.99;98089.03;5076075;28;20052;-49
2021/10/29 13:59:02;;;;;;;1.52;0.47;;;;;;;13.88;64.16;98111.44;5081724;28;20573;-48
2021/10/29 14:01:47;;;;;;;0.20;0.15;;;;;;;13.86;63.72;98102.03;5094594;28;20047;-48
2021/10/29 14:24:33;;;;;;;0.50;0.47;;;;;;;13.85;64.82;98175.81;5067986;28;20056;-49
2021/10/29 14:29:24;;;;;;;1.88;0.60;;;;;;;13.74;65.52;98176.28;5085780;28;20058;-48
2021/10/29 14:31:54;;;;;;;1.50;0.32;;;;;;;13.71;65.23;98172.06;5101074;28;20478;-48
2021/10/29 14:34:27;;;;;;;2.92;0.38;;;;;;;13.70;65.70;98174.75;5103892;28;20055;-48
2021/10/29 14:37:02;;;;;;;1.20;0.40;;;;;;;13.65;66.34;98181.91;5101499;28;20052;-49
2021/10/29 14:42:38;;;;;;;1.90;0.60;;;;;;;13.58;66.30;98192.59;5089326;28;20459;-48
2021/10/29 14:45:11;;;;;;;2.00;0.20;;;;;;;13.53;66.19;98184.16;5086343;28;20135;-49
2021/10/29 14:47:52;;;;;;;2.15;0.50;;;;;;;13.51;66.13;98185.97;5087974;28;20603;-49
2021/10/29 14:53:28;;;;;;;2.50;0.38;;;;;;;13.35;66.99;98217.81;5086041;28;20112;-51
2021/10/29 15:00:22;;;;;;;3.10;0.30;;;;;;;13.25;67.23;98260.75;5087421;28;20059;-50
2021/10/29 15:00:24;;;;;;;2.53;0.52;;;;;;;12.99;65.97;98267.88;5089560;28;20100;-53